createdAt,value
2023-04-14T00:01:53.446Z,99.90
2023-04-14T00:04:21.022Z,99.90
2023-04-14T00:06:48.262Z,99.90
2023-04-14T00:09:15.442Z,99.90
2023-04-14T00:11:42.168Z,99.90
2023-04-14T00:14:09.161Z,99.90
2023-04-14T00:16:36.499Z,99.90
2023-04-14T00:19:04.639Z,99.90
2023-04-14T00:21:31.734Z,99.90
2023-04-14T00:23:58.782Z,99.90
2023-04-14T00:26:25.740Z,99.90
2023-04-14T00:28:52.806Z,99.90
2023-04-14T00:31:19.656Z,99.90
2023-04-14T00:33:46.430Z,99.90
2023-04-14T00:36:13.296Z,99.90
2023-04-14T00:38:41.207Z,99.90
2023-04-14T00:41:08.277Z,99.90
2023-04-14T00:43:35.091Z,99.90
2023-04-14T00:46:03.315Z,99.90
2023-04-14T00:48:30.424Z,99.90
2023-04-14T00:50:57.449Z,99.90
2023-04-14T00:53:24.283Z,99.90
2023-04-14T00:55:51.642Z,99.90
2023-04-14T00:58:25.373Z,99.90
2023-04-14T01:00:55.611Z,99.90
2023-04-14T01:03:24.672Z,99.90
2023-04-14T01:05:52.368Z,99.90
2023-04-14T01:08:20.027Z,99.90
2023-04-14T01:11:04.879Z,99.90
2023-04-14T01:13:44.968Z,99.90
2023-04-14T01:16:33.730Z,99.90
2023-04-14T01:19:25.609Z,99.90
2023-04-14T01:21:56.841Z,99.90
2023-04-14T01:24:35.895Z,99.90
2023-04-14T01:27:29.669Z,99.90
2023-04-14T01:30:24.478Z,99.90
2023-04-14T01:32:53.866Z,99.90
2023-04-14T01:35:34.791Z,99.90
2023-04-14T01:38:08.541Z,99.90
2023-04-14T01:40:38.535Z,99.90
2023-04-14T01:43:10.294Z,99.90
2023-04-14T01:45:46.972Z,99.90
2023-04-14T01:48:14.582Z,99.90
2023-04-14T01:50:42.366Z,99.90
2023-04-14T01:53:11.190Z,99.90
2023-04-14T01:55:40.741Z,99.90
2023-04-14T01:58:09.753Z,99.90
2023-04-14T02:00:40.524Z,99.90
2023-04-14T02:03:07.806Z,99.90
2023-04-14T02:05:38.180Z,99.90
2023-04-14T02:08:10.250Z,99.90
2023-04-14T02:10:39.588Z,99.90
2023-04-14T02:13:07.874Z,99.90
2023-04-14T02:15:35.477Z,99.90
2023-04-14T02:18:05.683Z,99.90
2023-04-14T02:20:33.469Z,99.90
2023-04-14T02:23:00.833Z,99.90
2023-04-14T02:25:33.720Z,99.90
2023-04-14T02:28:12.452Z,99.90
2023-04-14T02:30:41.345Z,99.90
2023-04-14T02:33:13.721Z,99.90
2023-04-14T02:36:03.402Z,99.90
2023-04-14T02:38:37.647Z,99.90
2023-04-14T02:41:12.793Z,99.90
2023-04-14T02:43:51.353Z,99.90
2023-04-14T02:46:20.242Z,99.90
2023-04-14T02:48:49.011Z,99.90
2023-04-14T02:51:17.903Z,99.90
2023-04-14T02:53:45.836Z,99.90
2023-04-14T02:56:13.147Z,99.90
2023-04-14T02:58:40.541Z,99.90
2023-04-14T03:01:07.920Z,99.90
2023-04-14T03:03:37.662Z,99.90
2023-04-14T03:06:09.425Z,99.90
2023-04-14T03:08:38.514Z,99.90
2023-04-14T03:11:06.483Z,99.90
2023-04-14T03:13:35.637Z,99.90
2023-04-14T03:16:03.710Z,99.90
2023-04-14T03:18:32.205Z,99.90
2023-04-14T03:21:01.870Z,99.90
2023-04-14T03:23:29.871Z,99.90
2023-04-14T03:25:58.154Z,99.90
2023-04-14T03:28:29.178Z,99.90
2023-04-14T03:30:57.942Z,99.90
2023-04-14T03:33:29.067Z,99.90
2023-04-14T03:35:58.843Z,99.90
2023-04-14T03:38:30.681Z,99.90
2023-04-14T03:41:01.051Z,99.90
2023-04-14T03:43:28.624Z,99.90
2023-04-14T03:45:55.568Z,99.90
2023-04-14T03:48:29.925Z,99.90
2023-04-14T03:50:59.972Z,99.90
2023-04-14T03:53:29.433Z,99.90
2023-04-14T03:55:59.885Z,99.90
2023-04-14T03:58:29.973Z,99.90
2023-04-14T04:00:57.493Z,99.90
2023-04-14T04:03:25.551Z,99.90
2023-04-14T04:05:59.036Z,99.90
2023-04-14T04:08:26.761Z,99.90
2023-04-14T04:10:55.543Z,99.90
2023-04-14T04:13:23.897Z,99.90
2023-04-14T04:15:52.062Z,99.90
2023-04-14T04:18:22.786Z,99.90
2023-04-14T04:20:50.182Z,99.90
2023-04-14T04:23:18.900Z,99.90
2023-04-14T04:25:45.987Z,99.90
2023-04-14T04:28:12.979Z,99.90
2023-04-14T04:30:43.060Z,99.90
2023-04-14T04:33:10.992Z,99.90
2023-04-14T04:35:38.896Z,99.90
2023-04-14T04:38:05.890Z,99.90
2023-04-14T04:40:38.524Z,99.90
2023-04-14T04:43:05.763Z,99.90
2023-04-14T04:46:00.110Z,99.90
2023-04-14T04:48:26.919Z,99.90
2023-04-14T04:50:53.636Z,99.90
2023-04-14T04:53:20.453Z,99.90
2023-04-14T04:55:47.171Z,99.90
2023-04-14T04:58:13.944Z,99.90
2023-04-14T05:00:40.712Z,99.90
2023-04-14T05:03:07.479Z,99.90
2023-04-14T05:05:37.449Z,99.90
2023-04-14T05:08:04.636Z,99.90
2023-04-14T05:10:33.772Z,99.90
2023-04-14T05:13:00.486Z,99.90
2023-04-14T05:15:27.238Z,99.90
2023-04-14T05:17:54.050Z,99.90
2023-04-14T05:20:21.914Z,99.90
2023-04-14T05:22:48.629Z,99.90
2023-04-14T05:25:15.545Z,99.90
2023-04-14T05:27:42.293Z,99.90
2023-04-14T05:30:09.557Z,99.90
2023-04-14T05:32:36.502Z,99.90
2023-04-14T05:35:05.352Z,99.90
2023-04-14T05:37:33.063Z,99.90
2023-04-14T05:40:00.977Z,99.90
2023-04-14T05:42:27.783Z,99.90
2023-04-14T05:44:54.541Z,99.90
2023-04-14T05:47:21.378Z,99.90
2023-04-14T05:49:48.201Z,99.90
2023-04-14T05:52:14.919Z,99.90
2023-04-14T05:54:43.205Z,99.90
2023-04-14T05:57:10.154Z,99.90
2023-04-14T05:59:36.846Z,99.90
2023-04-14T06:02:07.229Z,99.90
2023-04-14T06:04:34.413Z,99.90
2023-04-14T06:07:02.830Z,99.90
2023-04-14T06:09:29.610Z,99.90
2023-04-14T06:11:56.673Z,99.90
2023-04-14T06:14:23.739Z,99.90
2023-04-14T06:16:51.153Z,99.90
2023-04-14T06:19:18.824Z,99.90
2023-04-14T06:21:46.690Z,99.90
2023-04-14T06:24:13.448Z,99.90
2023-04-14T06:26:40.310Z,99.90
2023-04-14T06:29:07.902Z,99.90
2023-04-14T06:31:35.270Z,99.90
2023-04-14T06:34:02.073Z,99.90
2023-04-14T06:36:29.003Z,99.90
2023-04-14T06:38:57.115Z,99.90
2023-04-14T06:41:24.501Z,99.90
2023-04-14T06:43:51.216Z,99.90
2023-04-14T06:46:18.947Z,99.90
2023-04-14T06:48:45.776Z,99.90
2023-04-14T06:51:13.682Z,99.90
2023-04-14T06:53:40.750Z,99.90
2023-04-14T06:56:08.001Z,99.90
2023-04-14T06:58:34.988Z,99.90
2023-04-14T07:01:03.427Z,99.90
2023-04-14T07:03:31.246Z,99.90
2023-04-14T07:06:05.237Z,99.90
2023-04-14T07:08:33.093Z,99.90
2023-04-14T07:11:01.811Z,99.90
2023-04-14T07:13:29.048Z,99.90
2023-04-14T07:15:56.211Z,99.90
2023-04-14T07:18:23.169Z,99.90
2023-04-14T07:20:52.711Z,99.90
2023-04-14T07:23:19.748Z,99.90
2023-04-14T07:25:54.744Z,99.90
2023-04-14T07:28:24.075Z,99.90
2023-04-14T07:30:52.745Z,99.90
2023-04-14T07:33:20.294Z,99.90
2023-04-14T07:36:01.310Z,99.90
2023-04-14T07:38:30.598Z,99.90
2023-04-14T07:40:57.676Z,99.90
2023-04-14T07:43:24.727Z,99.90
2023-04-14T07:45:53.195Z,99.90
2023-04-14T07:48:21.494Z,99.90
2023-04-14T07:50:49.990Z,99.90
2023-04-14T07:53:17.116Z,99.90
2023-04-14T07:55:43.904Z,99.90
2023-04-14T07:58:15.169Z,99.90
2023-04-14T08:00:43.113Z,99.90
2023-04-14T08:03:10.357Z,99.90
2023-04-14T08:05:37.798Z,99.90
2023-04-14T08:08:05.310Z,99.90
2023-04-14T08:10:32.351Z,99.90
2023-04-14T08:13:00.195Z,99.90
2023-04-14T08:15:28.474Z,99.90
2023-04-14T08:17:55.529Z,99.90
2023-04-14T08:20:22.880Z,99.90
2023-04-14T08:22:49.845Z,99.90
2023-04-14T08:25:16.847Z,99.90
2023-04-14T08:27:44.282Z,99.90
2023-04-14T08:30:12.822Z,99.90
2023-04-14T08:32:39.609Z,99.90
2023-04-14T08:35:39.582Z,99.90
2023-04-14T08:38:01.320Z,99.90
2023-04-14T08:40:41.248Z,99.90
2023-04-14T08:43:08.375Z,99.90
2023-04-14T08:45:36.301Z,99.90
2023-04-14T08:48:04.252Z,99.90
2023-04-14T08:50:43.097Z,99.90
2023-04-14T08:53:10.670Z,99.90
2023-04-14T08:55:43.276Z,99.90
2023-04-14T08:58:11.201Z,99.90
2023-04-14T09:00:39.890Z,99.90
2023-04-14T09:03:09.165Z,99.90
2023-04-14T09:05:37.359Z,99.90
2023-04-14T09:08:07.526Z,99.90
2023-04-14T09:10:36.731Z,99.90
2023-04-14T09:13:04.807Z,99.90
2023-04-14T09:15:33.770Z,99.90
2023-04-14T09:18:02.490Z,99.90
2023-04-14T09:20:38.038Z,99.90
2023-04-14T09:23:10.421Z,99.90
2023-04-14T09:25:43.916Z,99.90
2023-04-14T09:28:16.589Z,99.90
2023-04-14T09:30:43.366Z,99.90
2023-04-14T09:35:51.958Z,99.90
2023-04-14T09:38:39.066Z,99.90
2023-04-14T09:41:07.738Z,99.90
2023-04-14T09:43:37.346Z,99.90
2023-04-14T09:46:09.482Z,99.90
2023-04-14T09:48:49.226Z,99.90
2023-04-14T09:51:17.167Z,99.90
2023-04-14T09:53:52.847Z,99.90
2023-04-14T09:56:29.948Z,99.90
2023-04-14T09:59:04.475Z,99.90
2023-04-14T10:01:34.386Z,99.90
2023-04-14T10:04:24.017Z,99.90
2023-04-14T10:06:54.792Z,99.90
2023-04-14T10:09:23.170Z,99.90
2023-04-14T10:12:13.455Z,99.90
2023-04-14T10:14:41.623Z,99.90
2023-04-14T10:17:19.819Z,99.90
2023-04-14T10:19:47.457Z,99.90
2023-04-14T10:22:22.646Z,99.90
2023-04-14T10:25:01.698Z,99.90
2023-04-14T10:27:35.338Z,99.90
2023-04-14T10:30:02.488Z,99.90
2023-04-14T10:32:34.003Z,99.90
2023-04-14T10:35:10.096Z,99.90
2023-04-14T10:37:37.199Z,99.90
2023-04-14T10:40:07.036Z,99.90
2023-04-14T10:43:12.281Z,99.90
2023-04-14T10:46:07.824Z,99.90
2023-04-14T10:48:49.436Z,99.90
2023-04-14T10:51:18.561Z,99.90
2023-04-14T10:53:55.371Z,99.90
2023-04-14T10:56:25.357Z,99.90
2023-04-14T10:58:56.576Z,99.90
2023-04-14T11:01:32.716Z,99.90
2023-04-14T11:04:20.467Z,99.90
2023-04-14T11:06:55.004Z,99.90
2023-04-14T11:09:30.156Z,99.90
2023-04-14T11:12:28.594Z,99.90
2023-04-14T11:15:02.302Z,99.90
2023-04-14T11:17:39.035Z,99.90
2023-04-14T11:20:22.488Z,99.90
2023-04-14T11:22:52.499Z,99.90
2023-04-14T11:25:25.085Z,99.90
2023-04-14T11:27:52.480Z,99.90
2023-04-14T11:30:21.565Z,99.90
2023-04-14T11:32:53.735Z,99.90
2023-04-14T11:35:30.035Z,99.90
2023-04-14T11:38:04.184Z,99.90
2023-04-14T11:40:31.177Z,99.90
2023-04-14T11:42:59.154Z,99.90
2023-04-14T11:45:31.946Z,99.90
2023-04-14T11:48:22.501Z,99.90
2023-04-14T11:51:03.888Z,99.90
2023-04-14T11:53:32.110Z,99.90
2023-04-14T11:56:02.766Z,99.90
2023-04-14T11:58:31.986Z,99.90
2023-04-14T12:00:59.813Z,99.90
2023-04-14T12:03:36.166Z,99.90
2023-04-14T12:06:09.017Z,99.90
2023-04-14T12:08:35.764Z,99.90
2023-04-14T12:11:16.480Z,99.90
2023-04-14T12:13:47.042Z,99.90
2023-04-14T12:16:15.835Z,99.90
2023-04-14T12:18:49.805Z,99.90
2023-04-14T12:21:18.681Z,99.90
2023-04-14T12:23:50.140Z,99.90
2023-04-14T12:26:17.523Z,99.90
2023-04-14T12:28:46.091Z,99.90
2023-04-14T12:31:12.971Z,99.90
2023-04-14T12:33:41.478Z,99.90
2023-04-14T12:36:12.513Z,99.30
2023-04-14T12:38:42.813Z,98.20
2023-04-14T12:41:10.926Z,97.10
2023-04-14T12:43:41.403Z,95.30
2023-04-14T12:46:09.368Z,94.20
2023-04-14T12:48:48.281Z,93.50
2023-04-14T12:51:19.588Z,92.30
2023-04-14T12:53:50.107Z,92.30
2023-04-14T12:56:19.877Z,92.10
2023-04-14T12:58:48.615Z,92.00
2023-04-14T13:01:19.115Z,92.10
2023-04-14T13:03:50.396Z,91.90
2023-04-14T13:06:23.058Z,91.40
2023-04-14T13:08:56.514Z,90.90
2023-04-14T13:11:24.997Z,90.60
2023-04-14T13:13:54.172Z,90.50
2023-04-14T13:16:22.228Z,90.50
2023-04-14T13:18:50.523Z,90.30
2023-04-14T13:21:17.524Z,90.00
2023-04-14T13:23:44.886Z,89.20
2023-04-14T13:26:12.294Z,88.20
2023-04-14T13:28:39.617Z,88.10
2023-04-14T13:31:06.854Z,87.90
2023-04-14T13:33:33.740Z,88.10
2023-04-14T13:36:04.816Z,88.80
2023-04-14T13:38:31.790Z,89.80
2023-04-14T13:40:58.579Z,90.10
2023-04-14T13:43:25.292Z,90.30
2023-04-14T13:45:52.869Z,90.50
2023-04-14T13:48:19.876Z,90.50
2023-04-14T13:50:47.467Z,90.30
2023-04-14T13:53:15.510Z,90.00
2023-04-14T13:55:42.388Z,88.40
2023-04-14T13:58:11.354Z,88.20
2023-04-14T14:00:39.070Z,87.70
2023-04-14T14:03:08.195Z,87.70
2023-04-14T14:05:36.200Z,87.70
2023-04-14T14:08:04.324Z,88.00
2023-04-14T14:10:31.171Z,88.00
2023-04-14T14:13:04.858Z,88.10
2023-04-14T14:15:35.045Z,87.80
2023-04-14T14:18:03.126Z,88.10
2023-04-14T14:20:30.379Z,88.30
2023-04-14T14:23:02.910Z,88.10
2023-04-14T14:25:29.853Z,88.30
2023-04-14T14:27:57.097Z,88.40
2023-04-14T14:30:27.265Z,89.30
2023-04-14T14:32:55.392Z,89.60
2023-04-14T14:35:22.330Z,90.00
2023-04-14T14:37:49.104Z,90.20
2023-04-14T14:40:15.989Z,90.20
2023-04-14T14:42:42.700Z,90.30
2023-04-14T14:45:10.063Z,90.30
2023-04-14T14:47:37.498Z,90.40
2023-04-14T14:50:07.663Z,90.20
2023-04-14T14:52:41.023Z,89.90
2023-04-14T14:55:09.402Z,89.20
2023-04-14T14:57:39.349Z,89.50
2023-04-14T15:00:07.840Z,89.30
2023-04-14T15:02:34.977Z,90.10
2023-04-14T15:05:09.854Z,90.00
2023-04-14T15:07:45.825Z,90.00
2023-04-14T15:10:14.789Z,90.10
2023-04-14T15:12:42.540Z,90.10
2023-04-14T15:15:09.614Z,90.10
2023-04-14T15:17:36.435Z,90.10
2023-04-14T15:20:06.298Z,90.10
2023-04-14T15:22:33.170Z,90.10
2023-04-14T15:24:59.953Z,90.10
2023-04-14T15:27:26.781Z,90.10
2023-04-14T15:29:55.003Z,90.40
2023-04-14T15:32:25.287Z,90.80
2023-04-14T15:34:56.301Z,91.50
2023-04-14T15:37:26.422Z,92.20
2023-04-14T15:39:53.374Z,92.90
2023-04-14T15:42:20.307Z,93.50
2023-04-14T15:44:49.262Z,94.00
2023-04-14T15:47:16.045Z,94.60
2023-04-14T15:49:49.886Z,95.10
2023-04-14T15:52:26.699Z,95.50
2023-04-14T15:54:59.193Z,95.80
2023-04-14T15:57:31.965Z,96.10
2023-04-14T16:00:01.415Z,96.40
2023-04-14T16:02:28.641Z,96.50
2023-04-14T16:04:55.512Z,96.60
2023-04-14T16:07:24.286Z,96.80
2023-04-14T16:09:51.007Z,97.10
2023-04-14T16:12:17.850Z,97.40
2023-04-14T16:14:44.672Z,97.70
2023-04-14T16:17:11.678Z,98.00
2023-04-14T16:19:39.377Z,98.40
2023-04-14T16:22:06.073Z,98.80
2023-04-14T16:24:34.226Z,99.10
2023-04-14T16:27:06.713Z,99.50
2023-04-14T16:29:34.549Z,99.90
2023-04-14T16:32:01.381Z,99.90
2023-04-14T16:34:30.318Z,99.90
2023-04-14T16:36:58.549Z,99.90
2023-04-14T16:39:26.332Z,99.90
2023-04-14T16:41:54.262Z,99.90
2023-04-14T16:44:21.470Z,99.90
2023-04-14T16:46:55.327Z,99.90
2023-04-14T16:49:22.129Z,99.90
2023-04-14T16:51:48.828Z,99.90
2023-04-14T16:54:15.653Z,99.90
2023-04-14T16:56:42.396Z,99.90
2023-04-14T16:59:09.982Z,99.90
2023-04-14T17:01:39.961Z,99.90
2023-04-14T17:04:09.302Z,99.90
2023-04-14T17:06:42.832Z,99.90
2023-04-14T17:09:09.660Z,99.90
2023-04-14T17:11:36.401Z,99.90
2023-04-14T17:14:03.540Z,99.90
2023-04-14T17:16:30.507Z,99.90
2023-04-14T17:18:58.312Z,99.90
2023-04-14T17:21:26.490Z,99.90
2023-04-14T17:23:54.596Z,99.90
2023-04-14T17:26:21.442Z,99.90
2023-04-14T17:28:48.146Z,99.90
2023-04-14T17:31:15.619Z,99.90
2023-04-14T17:33:44.082Z,99.90
2023-04-14T17:36:15.316Z,99.90
2023-04-14T17:38:43.182Z,99.90
2023-04-14T17:41:11.045Z,99.90
2023-04-14T17:43:41.245Z,99.90
2023-04-14T17:46:08.843Z,99.90
2023-04-14T17:48:35.792Z,99.90
2023-04-14T17:51:03.488Z,99.90
2023-04-14T17:53:31.360Z,99.90
2023-04-14T17:55:58.393Z,99.90
2023-04-14T17:58:26.600Z,99.90
2023-04-14T18:00:57.452Z,99.90
2023-04-14T18:03:24.422Z,99.90
2023-04-14T18:05:51.571Z,99.90
2023-04-14T18:08:18.303Z,99.90
2023-04-14T18:10:45.846Z,99.90
2023-04-14T18:13:12.967Z,99.90
2023-04-14T18:15:41.342Z,99.90
2023-04-14T18:18:08.908Z,99.90
2023-04-14T18:20:36.358Z,99.90
2023-04-14T18:23:03.159Z,99.90
2023-04-14T18:28:03.033Z,99.90
2023-04-14T18:30:30.370Z,99.90
2023-04-14T18:32:57.190Z,99.90
2023-04-14T18:35:25.096Z,99.90
2023-04-14T18:37:51.883Z,99.90
2023-04-14T18:40:19.727Z,99.90
2023-04-14T18:42:46.477Z,99.90
2023-04-14T18:45:13.398Z,99.90
2023-04-14T18:47:40.267Z,99.90
2023-04-14T18:50:07.543Z,99.90
2023-04-14T18:52:34.272Z,99.90
2023-04-14T18:55:01.150Z,99.90
2023-04-14T18:57:29.122Z,99.90
2023-04-14T18:59:55.969Z,99.90
2023-04-14T19:02:23.092Z,99.90
2023-04-14T19:04:50.086Z,99.90
2023-04-14T19:07:18.329Z,99.90
2023-04-14T19:09:45.107Z,99.90
2023-04-14T19:12:21.630Z,99.90
2023-04-14T19:14:54.685Z,99.90
2023-04-14T19:17:21.505Z,99.90
2023-04-14T19:19:48.327Z,99.90
2023-04-14T19:22:16.162Z,99.90
2023-04-14T19:24:44.001Z,99.90
2023-04-14T19:27:10.963Z,99.90
2023-04-14T19:29:37.919Z,99.90
2023-04-14T19:32:05.484Z,99.90
2023-04-14T19:34:32.291Z,99.90
2023-04-14T19:36:59.156Z,99.90
2023-04-14T19:39:25.948Z,99.90
2023-04-14T19:41:52.681Z,99.90
2023-04-14T19:44:19.800Z,99.90
2023-04-14T19:46:46.623Z,99.90
2023-04-14T19:49:14.321Z,99.90
2023-04-14T19:51:41.077Z,99.90
2023-04-14T19:54:07.974Z,99.90
2023-04-14T19:56:35.086Z,99.90
2023-04-14T19:59:02.554Z,99.90
2023-04-14T20:01:31.414Z,99.90
2023-04-14T20:04:08.255Z,99.90
2023-04-14T20:06:40.716Z,99.90
2023-04-14T20:09:07.802Z,99.90
2023-04-14T20:11:34.683Z,99.90
2023-04-14T20:14:01.524Z,99.90
2023-04-14T20:16:28.397Z,99.90
2023-04-14T20:18:55.714Z,99.90
2023-04-14T20:21:22.576Z,99.90
2023-04-14T20:23:49.339Z,99.90
2023-04-14T20:26:16.814Z,99.90
2023-04-14T20:28:43.766Z,99.90
2023-04-14T20:31:11.151Z,99.90
2023-04-14T20:33:37.983Z,99.90
2023-04-14T20:36:04.997Z,99.90
2023-04-14T20:38:31.794Z,99.90
2023-04-14T20:40:59.104Z,99.90
2023-04-14T20:43:33.454Z,99.90
2023-04-14T20:46:01.412Z,99.90
2023-04-14T20:48:28.673Z,99.90
2023-04-14T20:50:55.388Z,99.90
2023-04-14T20:53:26.528Z,99.90
2023-04-14T20:55:53.632Z,99.90
2023-04-14T20:58:20.575Z,99.90
2023-04-14T21:00:47.362Z,99.90
2023-04-14T21:03:14.477Z,99.90
2023-04-14T21:05:41.499Z,99.90
2023-04-14T21:08:09.668Z,99.90
2023-04-14T21:11:02.231Z,99.90
2023-04-14T21:15:28.317Z,99.90
2023-04-14T21:16:11.963Z,99.90
2023-04-14T21:18:38.944Z,99.90
2023-04-14T21:21:06.475Z,99.90
2023-04-14T21:23:35.249Z,99.90
2023-04-14T21:26:02.073Z,99.90
2023-04-14T21:28:29.152Z,99.90
2023-04-14T21:31:01.103Z,99.90
2023-04-14T21:33:31.638Z,99.90
2023-04-14T21:36:05.229Z,99.90
2023-04-14T21:38:33.664Z,99.90
2023-04-14T21:41:01.331Z,99.90
2023-04-14T21:43:28.214Z,99.90
2023-04-14T21:45:56.384Z,99.90
2023-04-14T21:48:24.053Z,99.90
2023-04-14T21:50:51.226Z,99.90
2023-04-14T21:53:18.140Z,99.90
2023-04-14T21:55:46.961Z,99.90
2023-04-14T21:58:14.939Z,99.90
2023-04-14T22:00:42.107Z,99.90
2023-04-14T22:03:09.246Z,99.90
2023-04-14T22:05:36.955Z,99.90
2023-04-14T22:08:05.150Z,99.90
2023-04-14T22:10:32.487Z,99.90
2023-04-14T22:13:00.490Z,99.90
2023-04-14T22:15:27.682Z,99.90
2023-04-14T22:17:54.668Z,99.90
2023-04-14T22:20:23.259Z,99.90
2023-04-14T22:22:50.449Z,99.90
2023-04-14T22:25:18.931Z,99.90
2023-04-14T22:27:45.796Z,99.90
2023-04-14T22:30:12.904Z,99.90
2023-04-14T22:32:39.889Z,99.90
2023-04-14T22:35:07.256Z,99.90
2023-04-14T22:37:34.537Z,99.90
2023-04-14T22:40:03.320Z,99.90
2023-04-14T22:42:30.507Z,99.90
2023-04-14T22:44:57.414Z,99.90
2023-04-14T22:47:24.397Z,99.90
2023-04-14T22:49:53.292Z,99.90
2023-04-14T22:52:20.882Z,99.90
2023-04-14T22:54:48.829Z,99.90
2023-04-14T22:57:15.798Z,99.90
2023-04-14T22:59:42.908Z,99.90
2023-04-14T23:02:09.793Z,99.90
2023-04-14T23:04:36.958Z,99.90
2023-04-14T23:07:05.418Z,99.90
2023-04-14T23:09:32.390Z,99.90
2023-04-14T23:11:59.369Z,99.90
2023-04-14T23:14:28.487Z,99.90
2023-04-14T23:17:00.016Z,99.90
2023-04-14T23:19:29.051Z,99.90
2023-04-14T23:21:55.863Z,99.90
2023-04-14T23:24:23.599Z,99.90
2023-04-14T23:26:51.239Z,99.90
2023-04-14T23:29:18.276Z,99.90
2023-04-14T23:31:46.724Z,99.90
2023-04-14T23:34:13.756Z,99.90
2023-04-14T23:36:41.671Z,99.90
2023-04-14T23:39:08.648Z,99.90
2023-04-14T23:41:35.606Z,99.90
2023-04-14T23:44:02.550Z,99.90
2023-04-14T23:46:29.897Z,99.90
2023-04-14T23:48:57.531Z,99.90
2023-04-14T23:51:27.267Z,99.90
2023-04-14T23:53:54.154Z,99.90
2023-04-14T23:56:21.434Z,99.90
2023-04-14T23:58:49.681Z,99.90
